Time;durP1;ratioP1;P1;durP2;ratioP2;P2;SDS_P1;SDS_P2;PMS_P1;PMS_P2;Temp;Humidity;BMP_temperature;BMP_pressure;BME280_temperature;BME280_humidity;BME280_pressure;Samples;Min_cycle;Max_cycle;Signal;HPM_P1;HPM_P2
2023/12/07 00:00:18;;;;;;;8.40;6.60;;;;;;;7.77;55.42;99089.78;8358076;23;20231;-76
2023/12/07 00:03:41;;;;;;;6.43;5.73;;;;;;;7.57;55.67;99083.22;8360228;23;20172;-75
2023/12/07 00:07:02;;;;;;;9.60;7.67;;;;;;;7.34;56.44;99088.56;8361583;23;20731;-76
2023/12/07 00:10:24;;;;;;;11.00;8.03;;;;;;;6.60;58.58;99100.88;8360596;23;20238;-76
2023/12/07 00:13:45;;;;;;;9.07;7.17;;;;;;;7.13;58.13;99103.63;8361334;23;20705;-75
2023/12/07 00:17:07;;;;;;;10.67;7.73;;;;;;;7.00;58.79;99103.34;8359689;23;20187;-77
2023/12/07 00:20:30;;;;;;;11.17;7.70;;;;;;;6.83;58.00;99067.75;8358887;23;20623;-76
2023/12/07 00:23:51;;;;;;;8.10;7.07;;;;;;;7.50;57.19;99079.59;8361196;23;20266;-76
2023/12/07 00:27:13;;;;;;;10.53;7.43;;;;;;;7.37;57.12;99098.94;8362200;23;20272;-75
2023/12/07 00:30:35;;;;;;;9.37;7.33;;;;;;;7.62;56.65;99100.47;8361949;23;20312;-76
2023/12/07 00:33:57;;;;;;;8.27;7.47;;;;;;;7.30;57.36;99097.97;8362410;23;20187;-77
2023/12/07 00:37:19;;;;;;;9.97;7.40;;;;;;;7.46;56.83;99105.09;8363725;23;20280;-76
2023/12/07 00:40:41;;;;;;;10.70;7.70;;;;;;;7.48;57.41;99117.31;8360193;23;20285;-76
2023/12/07 00:44:02;;;;;;;9.80;7.47;;;;;;;7.53;57.32;99108.72;8362423;23;20221;-75
2023/12/07 00:47:24;;;;;;;11.47;6.43;;;;;;;7.69;56.21;99106.78;8363873;23;20330;-76
2023/12/07 00:50:47;;;;;;;11.97;9.40;;;;;;;6.86;57.76;99090.69;8363007;23;20210;-75
2023/12/07 00:54:10;;;;;;;13.27;9.90;;;;;;;6.86;59.19;99121.03;8363006;23;20328;-75
2023/12/07 00:57:31;;;;;;;16.60;10.70;;;;;;;7.39;58.02;99106.81;8361622;23;20213;-75
2023/12/07 01:00:53;;;;;;;10.53;9.07;;;;;;;7.14;58.65;99116.03;8361399;23;20285;-75
2023/12/07 01:04:14;;;;;;;10.33;8.40;;;;;;;7.21;57.99;99120.50;8362600;23;20186;-76
2023/12/07 01:07:36;;;;;;;11.13;8.20;;;;;;;7.66;57.27;99125.91;8363153;23;20276;-76
2023/12/07 01:10:58;;;;;;;9.23;7.57;;;;;;;7.43;57.22;99111.63;8362172;23;20344;-75
2023/12/07 01:14:20;;;;;;;9.83;8.77;;;;;;;7.42;57.89;99135.97;8362362;23;20220;-76
2023/12/07 01:17:41;;;;;;;10.10;7.60;;;;;;;7.84;56.31;99131.78;8362003;23;20211;-75
2023/12/07 01:21:04;;;;;;;11.67;7.97;;;;;;;7.76;56.45;99142.59;8361180;23;20324;-76
2023/12/07 01:24:25;;;;;;;8.70;7.80;;;;;;;7.25;57.36;99135.22;8363111;23;20186;-76
2023/12/07 01:27:48;;;;;;;10.30;8.67;;;;;;;7.42;57.80;99144.84;8363578;23;20265;-76
2023/12/07 01:31:10;;;;;;;10.07;8.13;;;;;;;7.79;56.33;99130.69;8361860;23;20209;-76
2023/12/07 01:34:32;;;;;;;12.80;9.40;;;;;;;7.67;56.32;99137.47;8361764;23;20212;-76
2023/12/07 01:37:53;;;;;;;10.30;8.20;;;;;;;7.34;56.94;99123.44;8361623;23;20218;-76
2023/12/07 01:41:15;;;;;;;16.30;10.97;;;;;;;7.15;57.88;99147.19;8361975;23;20226;-77
2023/12/07 01:44:38;;;;;;;13.27;9.27;;;;;;;6.94;58.53;99153.13;8363241;23;20228;-77
2023/12/07 01:47:59;;;;;;;13.77;10.03;;;;;;;7.05;59.56;99139.34;8362594;23;20679;-75
2023/12/07 01:51:21;;;;;;;13.60;9.80;;;;;;;6.68;59.92;99151.72;8360665;23;20230;-76
2023/12/07 01:54:43;;;;;;;12.67;9.80;;;;;;;6.58;60.64;99151.06;8361867;23;20183;-77
2023/12/07 01:58:05;;;;;;;13.27;10.50;;;;;;;7.54;58.13;99147.97;8363177;23;20183;-76
2023/12/07 02:01:28;;;;;;;12.43;9.83;;;;;;;7.47;57.89;99144.31;8360893;23;20351;-76
2023/12/07 02:04:50;;;;;;;11.37;8.67;;;;;;;7.50;57.69;99150.19;8362192;23;20672;-77
2023/12/07 02:08:11;;;;;;;9.63;8.47;;;;;;;7.51;57.88;99162.56;8361656;23;20178;-77
2023/12/07 02:11:33;;;;;;;10.40;8.87;;;;;;;7.36;58.51;99161.63;8361978;23;20286;-77
2023/12/07 02:14:54;;;;;;;12.80;8.93;;;;;;;7.63;57.92;99163.84;8361765;23;20316;-76
2023/12/07 02:18:22;;;;;;;11.43;10.10;;;;;;;7.44;57.89;99160.78;8363070;23;20419;-76
2023/12/07 02:21:48;;;;;;;12.13;9.77;;;;;;;7.72;57.34;99159.25;8363070;23;20692;-75
2023/12/07 02:25:11;;;;;;;10.83;9.73;;;;;;;7.35;58.26;99165.34;8362119;23;20168;-76
2023/12/07 02:28:34;;;;;;;17.63;10.13;;;;;;;6.92;59.95;99152.50;8360948;23;20746;-75
2023/12/07 02:31:55;;;;;;;10.60;9.30;;;;;;;7.63;58.48;99155.78;8360884;23;20346;-76
2023/12/07 02:35:17;;;;;;;10.10;8.93;;;;;;;7.80;57.43;99149.28;8361165;23;20527;-76
2023/12/07 02:38:39;;;;;;;11.73;8.93;;;;;;;7.76;57.47;99150.66;8361544;23;20553;-76
2023/12/07 02:42:01;;;;;;;14.10;9.77;;;;;;;7.78;57.24;99159.34;8361274;23;20739;-76
2023/12/07 02:45:25;;;;;;;11.27;9.63;;;;;;;7.78;57.38;99153.97;8362158;23;20184;-76
2023/12/07 02:48:47;;;;;;;11.37;9.87;;;;;;;7.91;56.88;99156.91;8359992;23;20797;-76
2023/12/07 02:52:08;;;;;;;12.37;9.60;;;;;;;7.75;57.55;99150.81;8361097;23;20505;-75
2023/12/07 02:55:30;;;;;;;14.10;10.87;;;;;;;7.27;58.48;99152.00;8361348;23;20272;-77
2023/12/07 02:58:51;;;;;;;12.00;10.47;;;;;;;6.91;59.19;99129.38;8361493;23;20272;-75
2023/12/07 03:02:14;;;;;;;13.27;10.37;;;;;;;7.48;59.26;99156.72;8362565;23;20231;-77
2023/12/07 03:05:35;;;;;;;12.10;9.67;;;;;;;7.74;58.20;99158.06;8361974;23;20262;-77
2023/12/07 03:08:57;;;;;;;14.50;10.37;;;;;;;7.65;58.51;99163.63;8360797;23;20231;-76
2023/12/07 03:12:18;;;;;;;12.23;10.13;;;;;;;7.53;58.61;99160.53;8360894;23;20270;-76
2023/12/07 03:15:40;;;;;;;13.43;10.23;;;;;;;7.59;58.44;99170.56;8359220;23;20705;-76
2023/12/07 03:19:03;;;;;;;15.20;10.07;;;;;;;8.07;57.41;99158.66;8360771;23;20249;-76
2023/12/07 03:22:25;;;;;;;14.97;10.50;;;;;;;7.81;57.26;99158.16;8361918;23;20241;-77
2023/12/07 03:25:46;;;;;;;14.17;10.23;;;;;;;7.95;56.81;99168.97;8361652;23;20191;-77
2023/12/07 03:29:08;;;;;;;14.67;10.00;;;;;;;7.92;56.61;99160.44;8359271;23;20343;-76
2023/12/07 03:32:29;;;;;;;13.63;10.77;;;;;;;7.54;57.28;99161.38;8360323;23;20280;-77
2023/12/07 03:35:52;;;;;;;15.33;10.73;;;;;;;7.57;57.95;99171.75;8361320;23;20254;-75
2023/12/07 03:39:14;;;;;;;16.97;12.17;;;;;;;7.40;57.92;99160.28;8360337;23;20317;-77
2023/12/07 03:42:35;;;;;;;13.17;10.67;;;;;;;7.59;57.50;99156.28;8361207;23;20481;-76
2023/12/07 03:45:57;;;;;;;16.97;11.30;;;;;;;7.29;57.69;99158.00;8360978;23;20232;-77
2023/12/07 03:49:18;;;;;;;14.00;10.90;;;;;;;7.21;58.42;99160.72;8359922;23;20340;-77
2023/12/07 03:52:41;;;;;;;14.67;10.80;;;;;;;7.24;58.11;99165.72;8360286;23;20619;-77
2023/12/07 03:56:03;;;;;;;15.80;11.30;;;;;;;7.26;57.85;99173.59;8361440;23;20227;-76
2023/12/07 03:59:25;;;;;;;12.73;10.03;;;;;;;7.21;57.83;99170.63;8361299;23;20567;-76
2023/12/07 04:02:46;;;;;;;12.50;10.87;;;;;;;7.31;57.37;99184.66;8364355;23;20331;-77
2023/12/07 04:06:08;;;;;;;13.50;11.27;;;;;;;7.13;57.88;99184.88;8366491;23;20264;-77
2023/12/07 04:09:31;;;;;;;15.63;11.40;;;;;;;7.00;57.88;99195.34;8364977;23;20208;-77
2023/12/07 04:12:53;;;;;;;15.03;11.43;;;;;;;6.85;57.62;99190.88;8366416;23;20182;-77
2023/12/07 04:16:14;;;;;;;13.87;11.07;;;;;;;6.62;59.06;99197.97;8366423;23;20528;-76
2023/12/07 04:19:36;;;;;;;13.07;10.93;;;;;;;6.66;58.62;99192.06;8365632;23;20660;-77
2023/12/07 04:22:57;;;;;;;15.63;10.80;;;;;;;6.86;58.41;99195.22;8366113;23;20266;-77
2023/12/07 04:26:20;;;;;;;13.40;11.13;;;;;;;6.68;58.47;99199.94;8365563;23;20260;-76
2023/12/07 04:29:42;;;;;;;12.43;10.83;;;;;;;6.61;58.77;99205.13;8364460;23;20241;-76
2023/12/07 04:33:03;;;;;;;15.00;12.13;;;;;;;6.47;59.05;99205.00;8366231;23;20340;-77
2023/12/07 04:36:25;;;;;;;16.20;11.53;;;;;;;6.40;59.30;99199.50;8366280;23;20264;-76
2023/12/07 04:39:46;;;;;;;15.07;11.30;;;;;;;6.84;58.29;99194.56;8365022;23;20288;-76
2023/12/07 04:43:09;;;;;;;15.23;11.97;;;;;;;6.57;58.88;99203.84;8366236;23;20563;-77
2023/12/07 04:46:30;;;;;;;15.50;11.57;;;;;;;6.71;58.59;99204.97;8366035;23;20206;-76
2023/12/07 04:49:52;;;;;;;13.57;11.10;;;;;;;6.65;58.05;99205.63;8365288;23;20292;-77
2023/12/07 04:53:13;;;;;;;14.97;10.77;;;;;;;6.54;58.60;99200.66;8365574;23;20264;-76
2023/12/07 04:56:35;;;;;;;15.40;11.57;;;;;;;6.77;57.70;99183.69;8365989;23;20644;-76
2023/12/07 04:59:58;;;;;;;14.80;11.23;;;;;;;6.32;58.61;99187.97;8365108;23;20288;-76
2023/12/07 05:03:19;;;;;;;13.57;10.50;;;;;;;6.52;58.40;99195.47;8363612;23;20610;-76
2023/12/07 05:06:40;;;;;;;14.03;10.97;;;;;;;6.71;57.79;99195.09;8364967;23;20215;-76
2023/12/07 05:10:03;;;;;;;14.13;10.97;;;;;;;6.62;57.95;99201.47;8364496;23;20792;-76
2023/12/07 05:13:25;;;;;;;13.20;11.03;;;;;;;6.23;58.17;99202.34;8363415;23;20237;-76
2023/12/07 05:16:52;;;;;;;16.20;10.63;;;;;;;6.39;58.53;99200.50;8362071;23;20280;-76
2023/12/07 05:20:15;;;;;;;13.80;11.17;;;;;;;6.41;57.95;99185.09;8361574;23;20653;-77
2023/12/07 05:23:37;;;;;;;15.67;11.83;;;;;;;6.54;57.75;99206.84;8360866;23;20189;-76
2023/12/07 05:26:58;;;;;;;18.57;11.33;;;;;;;6.49;57.82;99211.03;8361605;23;20283;-76
2023/12/07 05:30:20;;;;;;;14.80;11.63;;;;;;;6.33;57.86;99209.22;8360021;23;20280;-77
2023/12/07 05:33:42;;;;;;;18.10;11.93;;;;;;;6.05;58.61;99209.72;8374487;23;20259;-76
2023/12/07 05:37:05;;;;;;;14.57;11.00;;;;;;;6.20;58.76;99216.91;8363159;23;20271;-75
2023/12/07 05:40:27;;;;;;;15.63;11.80;;;;;;;5.95;59.13;99225.94;8362066;23;20209;-76
2023/12/07 05:43:48;;;;;;;16.80;12.30;;;;;;;5.53;60.65;99216.28;8362916;23;20178;-75
2023/12/07 05:47:10;;;;;;;16.27;12.60;;;;;;;5.97;60.37;99220.41;8362307;23;20539;-76
2023/12/07 05:50:33;;;;;;;18.73;12.57;;;;;;;5.89;59.97;99225.78;8360413;23;20670;-76
2023/12/07 05:53:54;;;;;;;16.97;12.83;;;;;;;5.95;59.94;99217.09;8361755;23;20291;-75
2023/12/07 05:57:16;;;;;;;17.63;12.70;;;;;;;6.16;59.46;99228.97;8363275;23;20265;-76
2023/12/07 06:00:39;;;;;;;20.13;14.80;;;;;;;5.89;59.28;99223.91;8360161;23;20225;-76
2023/12/07 06:04:01;;;;;;;20.07;14.53;;;;;;;6.10;58.79;99205.53;8362136;23;20173;-76
2023/12/07 06:07:24;;;;;;;18.93;14.37;;;;;;;6.29;58.62;99213.22;8362610;23;20221;-75
2023/12/07 06:10:45;;;;;;;31.17;19.17;;;;;;;6.18;58.07;99213.56;8359936;23;20336;-77
2023/12/07 06:14:07;;;;;;;25.87;16.90;;;;;;;6.20;58.51;99216.91;8361014;23;20267;-77
2023/12/07 06:17:28;;;;;;;22.03;15.73;;;;;;;6.16;58.25;99210.22;8361866;23;20181;-75
2023/12/07 06:20:50;;;;;;;24.17;15.77;;;;;;;6.25;57.92;99211.06;8361030;23;20236;-76
2023/12/07 06:24:14;;;;;;;22.70;14.00;;;;;;;6.28;57.73;99216.91;8350790;23;20647;-75
2023/12/07 06:27:35;;;;;;;28.47;19.57;;;;;;;5.82;58.26;99217.56;8352458;23;20240;-75
2023/12/07 06:30:57;;;;;;;19.67;14.80;;;;;;;6.03;58.23;99207.22;8352115;23;20355;-74
2023/12/07 06:34:19;;;;;;;16.27;12.73;;;;;;;6.05;57.97;99210.56;8359199;23;20182;-76
2023/12/07 06:37:41;;;;;;;16.80;12.90;;;;;;;6.05;57.45;99218.59;8359957;23;20182;-74
2023/12/07 06:41:04;;;;;;;14.90;11.90;;;;;;;6.11;57.27;99209.03;8358933;23;20217;-74
2023/12/07 06:44:26;;;;;;;14.17;11.83;;;;;;;6.11;56.98;99217.91;8360151;23;20262;-74
2023/12/07 06:47:47;;;;;;;17.90;12.30;;;;;;;6.05;56.84;99223.94;8360884;23;20263;-74
2023/12/07 06:51:09;;;;;;;15.33;11.67;;;;;;;5.87;56.96;99231.28;8360574;23;20217;-74
2023/12/07 06:54:30;;;;;;;16.90;11.97;;;;;;;5.74;57.18;99225.56;8361873;23;20283;-76
2023/12/07 06:57:53;;;;;;;16.37;12.13;;;;;;;5.66;57.86;99227.38;8361787;23;20264;-75
2023/12/07 07:01:15;;;;;;;16.63;11.83;;;;;;;5.80;58.15;99227.59;8357489;23;20198;-75
2023/12/07 07:04:36;;;;;;;13.10;11.37;;;;;;;6.10;56.94;99220.75;8360459;23;20220;-75
2023/12/07 07:07:58;;;;;;;13.83;11.50;;;;;;;5.94;56.98;99231.44;8359275;23;20272;-77
2023/12/07 07:11:19;;;;;;;16.37;11.97;;;;;;;5.84;57.46;99231.59;8361211;23;20207;-76
2023/12/07 07:14:43;;;;;;;16.30;12.23;;;;;;;5.65;57.84;99205.13;8361275;23;20320;-77
2023/12/07 07:18:05;;;;;;;18.70;12.53;;;;;;;5.59;58.05;99231.69;8361655;23;20622;-75
2023/12/07 07:21:26;;;;;;;16.53;12.57;;;;;;;5.77;58.15;99233.22;8361175;23;20205;-74
2023/12/07 07:24:48;;;;;;;20.63;12.27;;;;;;;5.91;57.38;99229.13;8361494;23;20266;-74
2023/12/07 07:28:09;;;;;;;16.37;12.03;;;;;;;5.93;57.05;99237.81;8359757;23;20618;-75
2023/12/07 07:31:32;;;;;;;16.10;11.60;;;;;;;5.90;57.29;99230.13;8359481;23;20206;-75
2023/12/07 07:34:54;;;;;;;18.53;12.90;;;;;;;5.64;57.32;99224.84;8360662;23;20221;-75
2023/12/07 07:38:16;;;;;;;21.20;12.97;;;;;;;5.67;57.92;99232.53;8360359;23;20190;-74
2023/12/07 07:41:37;;;;;;;19.30;11.83;;;;;;;5.55;58.22;99231.16;8360977;23;20263;-75
2023/12/07 07:44:58;;;;;;;15.97;12.10;;;;;;;5.45;59.03;99227.81;8359223;23;20214;-74
2023/12/07 07:48:21;;;;;;;17.50;12.37;;;;;;;5.11;59.38;99237.72;8356291;23;20766;-76
2023/12/07 07:51:43;;;;;;;23.07;12.97;;;;;;;5.82;58.39;99222.91;8360484;23;20314;-76
2023/12/07 07:55:05;;;;;;;19.67;13.27;;;;;;;5.75;58.25;99229.91;8361232;23;20297;-75
2023/12/07 07:58:27;;;;;;;16.60;11.90;;;;;;;5.66;58.48;99235.41;8360063;23;20222;-74
2023/12/07 08:01:48;;;;;;;15.47;12.80;;;;;;;5.65;57.95;99236.41;8360045;23;20324;-72
2023/12/07 08:05:12;;;;;;;17.30;12.00;;;;;;;5.65;58.57;99229.19;8360724;23;20236;-72
2023/12/07 08:08:34;;;;;;;17.70;12.53;;;;;;;5.74;58.14;99246.09;8360614;23;20272;-72
2023/12/07 08:11:55;;;;;;;16.90;12.17;;;;;;;5.91;58.39;99231.78;8360702;23;20240;-73
2023/12/07 08:15:17;;;;;;;17.27;12.63;;;;;;;6.18;58.21;99229.63;8361011;23;20191;-72
2023/12/07 08:18:38;;;;;;;16.97;13.13;;;;;;;6.08;57.41;99234.28;8359620;23;20214;-72
2023/12/07 08:22:01;;;;;;;23.53;13.20;;;;;;;6.13;57.77;99221.25;8352654;23;20336;-72
2023/12/07 08:25:23;;;;;;;16.87;12.90;;;;;;;6.41;57.54;99225.28;8359447;23;20230;-74
2023/12/07 08:28:44;;;;;;;19.37;12.83;;;;;;;6.12;57.86;99240.16;8354884;23;20190;-72
2023/12/07 08:32:06;;;;;;;15.80;13.00;;;;;;;8.12;53.70;99226.91;8359380;23;20213;-72
2023/12/07 08:35:28;;;;;;;15.53;12.17;;;;;;;10.09;49.70;99223.16;8361678;23;20183;-74
2023/12/07 08:38:52;;;;;;;28.40;21.60;;;;;;;11.13;46.67;99223.19;8360764;23;20186;-72
2023/12/07 08:42:13;;;;;;;16.37;12.53;;;;;;;10.75;47.25;99233.50;8355135;23;20300;-77
2023/12/07 08:45:38;;;;;;;16.13;12.73;;;;;;;10.04;47.45;99228.28;8359647;23;20350;-77
2023/12/07 08:48:59;;;;;;;14.53;12.37;;;;;;;9.30;49.07;99231.31;8360626;23;20191;-76
2023/12/07 08:52:21;;;;;;;19.67;14.67;;;;;;;8.40;51.05;99238.81;8363474;23;20294;-77
2023/12/07 08:55:43;;;;;;;17.13;14.03;;;;;;;8.13;52.71;99227.75;8362380;23;20771;-75
2023/12/07 08:59:05;;;;;;;16.07;12.80;;;;;;;7.69;54.01;99221.31;8362979;23;20647;-77
2023/12/07 09:02:27;;;;;;;21.53;14.97;;;;;;;7.41;54.90;99222.81;8361973;23;20190;-77
2023/12/07 09:05:48;;;;;;;16.67;13.07;;;;;;;7.19;55.90;99235.13;8363521;23;20260;-77
2023/12/07 09:09:11;;;;;;;16.13;12.60;;;;;;;8.07;55.69;99229.28;8368535;23;20213;-76
2023/12/07 09:12:35;;;;;;;16.77;12.00;;;;;;;8.51;54.63;99222.25;8362813;23;20188;-77
2023/12/07 09:15:57;;;;;;;35.90;23.50;;;;;;;8.47;53.37;99212.88;8362680;23;20232;-79
2023/12/07 09:19:18;;;;;;;17.07;13.83;;;;;;;8.97;54.35;99209.50;8360729;23;20190;-75
2023/12/07 09:22:41;;;;;;;17.40;13.37;;;;;;;9.07;51.90;99202.81;8363319;23;20262;-77
2023/12/07 09:26:03;;;;;;;17.40;12.87;;;;;;;8.83;52.71;99195.03;8362383;23;20186;-75
2023/12/07 09:29:27;;;;;;;15.53;12.27;;;;;;;9.26;51.77;99195.03;8363200;23;20202;-73
2023/12/07 09:32:48;;;;;;;15.90;12.87;;;;;;;9.55;52.34;99188.75;8362964;23;20206;-73
2023/12/07 09:36:11;;;;;;;18.33;12.70;;;;;;;9.84;52.20;99175.19;8352729;23;20267;-75
2023/12/07 09:39:33;;;;;;;16.00;11.90;;;;;;;10.10;51.74;99167.44;8358813;23;20222;-73
2023/12/07 09:42:54;;;;;;;12.87;10.40;;;;;;;10.50;50.44;99185.63;8357254;23;20595;-74
2023/12/07 09:46:17;;;;;;;15.83;13.20;;;;;;;10.63;49.89;99177.63;8360061;23;20320;-73
2023/12/07 09:49:39;;;;;;;19.53;12.87;;;;;;;10.55;50.68;99181.28;8361199;23;20231;-74
2023/12/07 09:53:02;;;;;;;13.87;11.97;;;;;;;10.74;49.07;99169.81;8362285;23;20211;-73
2023/12/07 09:56:23;;;;;;;13.70;12.30;;;;;;;10.65;49.48;99173.69;8360782;23;20182;-73
2023/12/07 09:59:45;;;;;;;12.63;11.03;;;;;;;10.75;49.62;99163.38;8359940;23;20293;-73
2023/12/07 10:03:21;;;;;;;16.20;12.47;;;;;;;9.60;52.14;99168.31;8362714;23;20666;-73
2023/12/07 10:06:44;;;;;;;12.60;11.20;;;;;;;10.70;50.69;99154.22;8362760;23;20729;-74
2023/12/07 10:10:06;;;;;;;14.20;10.80;;;;;;;10.91;49.92;99159.53;8362148;23;20226;-73
2023/12/07 10:13:30;;;;;;;12.00;10.43;;;;;;;10.88;49.51;99152.69;8361922;23;20322;-73
2023/12/07 10:16:55;;;;;;;15.23;10.97;;;;;;;10.40;50.82;99131.19;8361821;23;20264;-74
2023/12/07 10:20:23;;;;;;;12.33;10.80;;;;;;;11.02;49.26;99130.13;8360600;23;20198;-74
2023/12/07 10:23:46;;;;;;;12.37;10.90;;;;;;;11.50;48.30;99130.94;8361870;23;20179;-75
2023/12/07 10:27:08;;;;;;;12.50;10.47;;;;;;;11.78;47.72;99131.69;8361206;23;20185;-73
2023/12/07 10:30:29;;;;;;;11.87;10.37;;;;;;;11.91;47.21;99124.44;8360825;23;20212;-73
2023/12/07 10:33:51;;;;;;;10.97;9.87;;;;;;;12.12;47.16;99126.13;8361444;23;20271;-73
2023/12/07 10:37:13;;;;;;;10.47;9.27;;;;;;;12.19;46.15;99116.13;8361436;23;20314;-73
2023/12/07 10:40:35;;;;;;;11.10;9.33;;;;;;;12.11;46.23;99110.94;8359720;23;20350;-78
2023/12/07 10:44:00;;;;;;;12.17;10.13;;;;;;;12.36;47.63;99093.91;8359964;23;20623;-76
2023/12/07 10:47:22;;;;;;;11.57;10.33;;;;;;;11.77;47.39;99092.19;8359530;23;20207;-74
2023/12/07 10:50:47;;;;;;;11.63;9.97;;;;;;;12.46;45.48;99090.75;8357914;23;20213;-78
2023/12/07 10:54:12;;;;;;;10.23;9.13;;;;;;;12.44;45.24;99084.72;8360329;23;20280;-74
2023/12/07 10:57:35;;;;;;;10.53;9.07;;;;;;;12.78;44.29;99089.84;8360912;23;20212;-75
2023/12/07 11:00:57;;;;;;;10.00;9.00;;;;;;;13.14;42.29;99087.47;8361572;23;20304;-75
2023/12/07 11:04:19;;;;;;;8.77;7.63;;;;;;;12.92;43.29;99081.47;8362056;23;20534;-73
2023/12/07 11:07:51;;;;;;;9.13;8.20;;;;;;;13.07;42.24;99092.94;8359027;23;20221;-75
2023/12/07 11:11:21;;;;;;;8.37;7.43;;;;;;;12.74;43.14;99091.34;8360542;23;20340;-76
2023/12/07 11:14:42;;;;;;;8.90;7.27;;;;;;;13.32;43.60;99071.34;8358628;23;20462;-75
2023/12/07 11:18:04;;;;;;;8.50;7.60;;;;;;;12.81;42.15;99062.38;8360566;23;20271;-78
2023/12/07 11:21:25;;;;;;;7.30;6.57;;;;;;;12.23;42.60;99069.53;8358943;23;20202;-77
2023/12/07 11:24:55;;;;;;;6.93;6.23;;;;;;;11.94;40.99;99051.09;8361158;23;20213;-76
2023/12/07 11:28:18;;;;;;;7.70;6.93;;;;;;;11.02;44.67;99015.97;8358271;23;20557;-75
2023/12/07 11:31:39;;;;;;;8.47;6.97;;;;;;;11.74;43.24;99042.13;8360027;23;20508;-77
2023/12/07 11:35:04;;;;;;;6.83;6.13;;;;;;;12.16;43.25;99039.00;8362215;23;20197;-76
2023/12/07 11:38:26;;;;;;;7.13;6.30;;;;;;;12.76;41.13;99025.13;8361126;23;20192;-75
2023/12/07 11:41:51;;;;;;;6.23;5.63;;;;;;;12.24;41.57;99002.81;8360330;23;20716;-75
2023/12/07 11:45:14;;;;;;;5.80;5.07;;;;;;;12.20;39.98;99029.44;8359870;23;20190;-77
2023/12/07 11:48:35;;;;;;;7.50;5.50;;;;;;;11.85;40.57;99025.28;8358441;23;20225;-77
2023/12/07 11:51:57;;;;;;;6.97;5.60;;;;;;;11.62;41.44;99005.97;8361761;23;20632;-79
2023/12/07 11:55:18;;;;;;;7.73;5.87;;;;;;;11.82;41.08;99009.53;8360028;23;20213;-77
2023/12/07 11:58:40;;;;;;;7.33;5.97;;;;;;;11.63;41.60;98982.50;8361937;23;20331;-78
2023/12/07 12:02:03;;;;;;;5.83;5.23;;;;;;;12.75;40.02;98990.19;8363340;23;20210;-76
2023/12/07 12:05:24;;;;;;;6.47;5.77;;;;;;;12.46;40.26;98988.00;8361967;23;20271;-74
2023/12/07 12:08:46;;;;;;;5.70;5.13;;;;;;;12.27;40.30;98975.38;8361253;23;20589;-77
2023/12/07 12:12:08;;;;;;;8.23;5.90;;;;;;;11.09;42.12;98971.78;8360226;23;20289;-78
2023/12/07 12:15:29;;;;;;;7.67;5.37;;;;;;;11.80;41.35;98975.66;8357317;23;20291;-76
2023/12/07 12:18:52;;;;;;;7.83;6.13;;;;;;;11.73;41.84;98948.63;8362409;23;20185;-76
2023/12/07 12:22:14;;;;;;;7.00;6.30;;;;;;;11.14;43.84;98949.59;8363537;23;20320;-76
2023/12/07 12:25:35;;;;;;;7.53;6.40;;;;;;;11.09;43.85;98936.72;8361874;23;20213;-77
2023/12/07 12:28:57;;;;;;;6.30;5.70;;;;;;;10.37;44.16;98946.44;8361848;23;20274;-76
2023/12/07 12:32:18;;;;;;;9.77;8.23;;;;;;;10.61;44.39;98937.00;8353735;23;21345;-76
2023/12/07 12:35:41;;;;;;;7.40;6.27;;;;;;;10.83;43.08;98933.13;8362562;23;20219;-74
2023/12/07 12:39:05;;;;;;;8.13;6.70;;;;;;;10.36;44.28;98936.72;8359722;23;20287;-75
2023/12/07 12:42:26;;;;;;;7.10;6.40;;;;;;;10.37;44.95;98907.88;8361412;23;20282;-75
2023/12/07 12:45:48;;;;;;;6.73;6.13;;;;;;;10.73;42.66;98929.97;8355999;23;20238;-74
2023/12/07 12:49:09;;;;;;;6.43;5.83;;;;;;;10.56;42.98;98924.13;8357917;23;20217;-74
2023/12/07 12:52:32;;;;;;;6.47;5.83;;;;;;;10.56;42.64;98910.66;8360313;23;20242;-74
2023/12/07 12:55:53;;;;;;;8.13;5.00;;;;;;;11.39;41.38;98897.50;8361286;23;20642;-73
2023/12/07 12:59:15;;;;;;;4.83;4.40;;;;;;;11.90;38.87;98897.69;8360863;23;20262;-73
2023/12/07 13:02:38;;;;;;;7.50;4.30;;;;;;;12.41;36.69;98891.28;8361552;23;20210;-73
2023/12/07 13:05:59;;;;;;;5.50;4.40;;;;;;;12.52;35.99;98862.75;8362507;23;20189;-73
2023/12/07 13:09:22;;;;;;;5.10;4.60;;;;;;;12.57;35.30;98850.22;8360735;23;20318;-73
2023/12/07 13:12:45;;;;;;;6.27;4.30;;;;;;;12.71;35.28;98899.66;8361956;23;20224;-73
2023/12/07 13:16:07;;;;;;;4.23;3.73;;;;;;;12.26;33.74;98898.00;8363635;23;20192;-73
2023/12/07 13:19:28;;;;;;;3.40;3.17;;;;;;;11.56;33.97;98895.22;8362901;23;20636;-73
2023/12/07 13:22:50;;;;;;;3.43;3.10;;;;;;;11.43;34.71;98890.66;8362329;23;20182;-73
2023/12/07 13:26:13;;;;;;;3.20;2.97;;;;;;;11.61;34.16;98896.28;8361745;23;20248;-75
2023/12/07 13:29:34;;;;;;;3.30;3.00;;;;;;;12.07;34.20;98869.16;8361079;23;20711;-73
2023/12/07 13:32:56;;;;;;;3.50;3.20;;;;;;;12.04;33.82;98878.53;8361921;23;20233;-72
2023/12/07 13:36:17;;;;;;;3.27;3.07;;;;;;;12.06;33.47;98872.91;8359830;23;20186;-72
2023/12/07 13:39:39;;;;;;;4.00;3.10;;;;;;;11.41;33.61;98867.59;8361863;23;20217;-72
2023/12/07 13:43:03;;;;;;;3.50;3.20;;;;;;;10.95;34.70;98883.78;8359767;23;20189;-72
2023/12/07 13:46:24;;;;;;;3.50;3.20;;;;;;;10.85;35.22;98877.94;8361612;23;20202;-72
2023/12/07 13:49:46;;;;;;;4.87;3.17;;;;;;;11.32;34.36;98866.97;8360340;23;20208;-73
2023/12/07 13:53:10;;;;;;;2.73;2.53;;;;;;;11.10;34.58;98886.28;8363197;23;20703;-72
2023/12/07 13:56:31;;;;;;;2.80;2.60;;;;;;;11.07;34.85;98884.84;8363502;23;20182;-72
2023/12/07 13:59:55;;;;;;;3.57;3.00;;;;;;;11.12;33.55;98895.84;8362012;23;20233;-72
2023/12/07 14:03:17;;;;;;;4.10;2.90;;;;;;;11.01;33.75;98903.69;8361489;23;20185;-72
2023/12/07 14:06:38;;;;;;;5.13;2.93;;;;;;;11.12;34.25;98906.63;8361664;23;20231;-73
2023/12/07 14:10:00;;;;;;;4.40;2.73;;;;;;;11.03;34.36;98897.06;8361908;23;20566;-72
2023/12/07 14:13:23;;;;;;;3.30;3.00;;;;;;;11.27;34.77;98895.66;8361190;23;20339;-72
2023/12/07 14:16:46;;;;;;;4.13;3.77;;;;;;;11.29;35.24;98870.13;8362228;23;20181;-73
2023/12/07 14:20:09;;;;;;;4.33;3.10;;;;;;;11.15;33.99;98862.22;8360975;23;20229;-72
2023/12/07 14:23:31;;;;;;;6.03;2.90;;;;;;;10.98;33.97;98880.66;8361623;23;20207;-73
2023/12/07 14:26:53;;;;;;;4.40;4.00;;;;;;;10.65;35.23;98877.09;8361863;23;20184;-72
2023/12/07 14:30:16;;;;;;;3.07;2.77;;;;;;;10.68;33.73;98875.84;8359581;23;20257;-72
2023/12/07 14:33:39;;;;;;;3.53;2.80;;;;;;;10.92;34.11;98875.28;8361666;23;20189;-74
2023/12/07 14:37:02;;;;;;;3.33;2.80;;;;;;;10.89;34.10;98871.13;8361930;23;20269;-72
2023/12/07 14:40:24;;;;;;;3.93;3.53;;;;;;;10.54;34.92;98880.38;8361587;23;20326;-72
2023/12/07 14:43:45;;;;;;;3.93;3.20;;;;;;;10.60;34.23;98868.78;8360688;23;20182;-72
2023/12/07 14:47:07;;;;;;;4.30;3.27;;;;;;;10.44;34.43;98869.13;8358840;23;20273;-72
2023/12/07 14:50:30;;;;;;;3.50;2.80;;;;;;;10.03;34.67;98871.03;8360632;23;20282;-72
2023/12/07 14:53:51;;;;;;;3.10;2.90;;;;;;;10.32;34.53;98861.81;8361880;23;20529;-72
2023/12/07 14:57:13;;;;;;;3.80;2.80;;;;;;;10.23;35.32;98854.97;8361999;23;20234;-72
2023/12/07 15:00:34;;;;;;;3.20;2.90;;;;;;;9.85;34.62;98859.09;8359570;23;20562;-72
2023/12/07 15:03:56;;;;;;;4.80;3.50;;;;;;;9.22;35.77;98845.88;8360829;23;20224;-73
2023/12/07 15:07:19;;;;;;;3.90;3.50;;;;;;;8.70;36.34;98858.84;8358999;23;20522;-72
2023/12/07 15:10:40;;;;;;;3.43;3.13;;;;;;;8.29;37.28;98856.94;8360494;23;20240;-72
2023/12/07 15:14:02;;;;;;;4.10;3.23;;;;;;;8.99;36.73;98838.00;8361295;23;20249;-72
2023/12/07 15:17:24;;;;;;;4.03;3.73;;;;;;;9.52;35.32;98832.00;8360959;23;20185;-72
2023/12/07 15:20:45;;;;;;;5.53;3.40;;;;;;;8.86;35.47;98844.31;8359660;23;20286;-72
2023/12/07 15:24:08;;;;;;;5.47;4.17;;;;;;;9.34;34.95;98836.22;8360490;23;20220;-72
2023/12/07 15:27:30;;;;;;;5.23;4.07;;;;;;;9.50;37.16;98830.56;8359653;23;20204;-73
2023/12/07 15:30:51;;;;;;;3.73;3.37;;;;;;;8.97;36.18;98819.59;8360006;23;20564;-73
2023/12/07 15:34:13;;;;;;;4.90;4.03;;;;;;;9.20;37.11;98823.69;8360789;23;20281;-74
2023/12/07 15:37:34;;;;;;;6.03;4.20;;;;;;;8.90;40.89;98832.97;8361876;23;20185;-74
2023/12/07 15:40:58;;;;;;;5.33;4.07;;;;;;;8.93;41.39;98827.22;8359364;23;20766;-73
2023/12/07 15:44:20;;;;;;;4.80;4.27;;;;;;;8.61;41.79;98808.13;8360482;23;20362;-75